Aviation Digital Data Service (ADDS)

Output produced by METARs form (0832 UTC 18 November 2017)
found at http://aviationweather.gov/adds/metars/
 
KMCB 180805Z AUTO 17007KT 5SM BR SCT005 17/16 A2991 RMK AO2 T01670156